Burkettsville, Ohio
Current Conditions -  °F | °C
As of 5:11 AM on Sunday 25 Jan 2015 (Local Time) from KAXV Reporting Station
Broken Clouds Broken Clouds  
Wind Chill: 29°   Ceiling: 2800
Heat Index: 34°   Visibility: 10mi
Dew Point: 34°   Wind: 6mph
Humidity: 100%   Direction: 170°S
Pressure: 29.72"   Gusts: NA
Location:  40.35°N, 84.64°W
Report Text: KAXV 251011Z AUTO 17005KT 10SM BKN028 01/01 A2972 RMK AO2
Loading
Personal Weather Stations






























Interactive Weather Map New forecast layout! Learn more

10-Day Weather Forecast

Advertisements
Track Severe Weather on mobile